createdAt,value
2018-04-02T00:01:40.640Z,81.90
2018-04-02T00:04:11.111Z,81.90
2018-04-02T00:06:41.705Z,81.90
2018-04-02T00:09:12.181Z,82.10
2018-04-02T00:11:43.655Z,82.00
2018-04-02T00:14:14.889Z,81.80
2018-04-02T00:16:46.106Z,81.00
2018-04-02T00:19:16.548Z,81.00
2018-04-02T00:21:47.030Z,81.00
2018-04-02T00:24:17.452Z,81.20
2018-04-02T00:26:47.890Z,81.20
2018-04-02T00:29:18.356Z,81.60
2018-04-02T00:31:48.807Z,81.50
2018-04-02T00:34:19.347Z,81.20
2018-04-02T00:36:49.806Z,81.10
2018-04-02T00:39:20.259Z,80.70
2018-04-02T00:41:50.818Z,80.20
2018-04-02T00:44:22.990Z,77.80
2018-04-02T00:46:53.896Z,77.80
2018-04-02T00:49:24.387Z,77.60
2018-04-02T00:51:54.855Z,77.50
2018-04-02T00:54:26.018Z,77.40
2018-04-02T00:56:57.273Z,77.10
2018-04-02T00:59:27.733Z,77.10
2018-04-02T01:01:58.186Z,76.50
2018-04-02T01:04:28.656Z,76.50
2018-04-02T01:06:59.491Z,76.20
2018-04-02T01:09:30.760Z,75.00
2018-04-02T01:12:02.620Z,74.90
2018-04-02T01:14:34.077Z,74.80
2018-04-02T01:17:04.551Z,74.10
2018-04-02T01:19:36.202Z,73.20
2018-04-02T01:22:07.406Z,72.50
2018-04-02T01:24:37.862Z,72.50
2018-04-02T01:27:08.309Z,72.50
2018-04-02T01:29:39.530Z,72.00
2018-04-02T01:32:09.970Z,72.00
2018-04-02T01:34:40.794Z,71.50
2018-04-02T01:37:11.263Z,71.00
2018-04-02T01:39:41.762Z,70.60
2018-04-02T01:42:12.238Z,69.90
2018-04-02T01:44:42.674Z,69.30
2018-04-02T01:47:13.167Z,68.80
2018-04-02T01:49:44.423Z,68.60
2018-04-02T01:52:14.940Z,68.50
2018-04-02T01:54:46.183Z,68.10
2018-04-02T01:57:17.438Z,67.40
2018-04-02T01:59:48.297Z,67.40
2018-04-02T02:02:19.724Z,67.10
2018-04-02T02:04:50.168Z,66.60
2018-04-02T02:07:20.646Z,66.40
2018-04-02T02:09:51.123Z,66.30
2018-04-02T02:12:21.595Z,65.80
2018-04-02T02:14:52.107Z,65.80
2018-04-02T02:17:22.559Z,65.30
2018-04-02T02:19:53.065Z,64.80
2018-04-02T02:22:23.513Z,64.50
2018-04-02T02:24:54.070Z,64.30
2018-04-02T02:27:25.280Z,63.50
2018-04-02T02:29:55.745Z,63.50
2018-04-02T02:32:26.660Z,63.20
2018-04-02T02:34:58.171Z,62.80
2018-04-02T02:37:29.284Z,62.70
2018-04-02T02:39:59.745Z,62.60
2018-04-02T02:42:30.307Z,62.60
2018-04-02T02:45:00.914Z,62.20
2018-04-02T02:47:31.571Z,62.30
2018-04-02T02:50:02.031Z,63.30
2018-04-02T02:52:32.542Z,62.60
2018-04-02T02:55:04.694Z,62.40
2018-04-02T02:57:35.152Z,62.40
2018-04-02T03:00:05.686Z,61.60
2018-04-02T03:02:36.174Z,62.00
2018-04-02T03:05:06.691Z,61.80
2018-04-02T03:07:37.160Z,61.80
2018-04-02T03:10:07.634Z,61.40
2018-04-02T03:12:38.074Z,61.20
2018-04-02T03:15:08.548Z,61.30
2018-04-02T03:17:39.014Z,61.30
2018-04-02T03:20:09.462Z,61.20
2018-04-02T03:22:39.937Z,61.10
2018-04-02T03:25:10.434Z,60.70
2018-04-02T03:27:41.619Z,59.00
2018-04-02T03:30:12.091Z,58.90
2018-04-02T03:32:42.854Z,58.80
2018-04-02T03:35:14.426Z,59.40
2018-04-02T03:37:45.701Z,58.70
2018-04-02T03:40:16.244Z,58.70
2018-04-02T03:42:46.711Z,59.20
2018-04-02T03:45:18.848Z,60.10
2018-04-02T03:47:49.310Z,60.10
2018-04-02T03:50:19.854Z,60.80
2018-04-02T03:52:50.307Z,61.70
2018-04-02T03:55:20.793Z,62.50
2018-04-02T03:57:51.251Z,62.30
2018-04-02T04:00:21.706Z,61.80
2018-04-02T04:02:52.163Z,60.70
2018-04-02T04:05:23.385Z,60.10
2018-04-02T04:07:54.455Z,60.10
2018-04-02T04:10:25.730Z,61.10
2018-04-02T04:12:56.162Z,61.10
2018-04-02T04:15:26.656Z,62.00
2018-04-02T04:17:57.914Z,62.70
2018-04-02T04:20:29.563Z,61.80
2018-04-02T04:23:00.035Z,61.80
2018-04-02T04:25:31.450Z,61.90
2018-04-02T04:28:01.942Z,62.30
2018-04-02T04:30:33.198Z,65.30
2018-04-02T04:33:04.426Z,66.40
2018-04-02T04:35:34.931Z,66.30
2018-04-02T04:38:05.382Z,67.20
2018-04-02T04:40:35.856Z,67.40
2018-04-02T04:43:06.344Z,67.80
2018-04-02T04:45:37.614Z,66.40
2018-04-02T04:48:08.082Z,66.40
2018-04-02T04:50:38.807Z,66.90
2018-04-02T04:53:09.410Z,67.10
2018-04-02T04:55:40.020Z,67.20
2018-04-02T04:58:11.277Z,66.90
2018-04-02T05:00:42.531Z,66.60
2018-04-02T05:03:12.995Z,66.60
2018-04-02T05:05:43.475Z,66.50
2018-04-02T05:08:13.942Z,66.50
2018-04-02T05:10:45.354Z,66.80
2018-04-02T05:13:16.753Z,67.00
2018-04-02T05:15:47.202Z,66.90
2018-04-02T05:18:17.655Z,66.80
2018-04-02T05:20:48.883Z,66.20
2018-04-02T05:23:20.135Z,65.70
2018-04-02T05:25:51.403Z,65.30
2018-04-02T05:28:21.983Z,65.30
2018-04-02T05:30:52.436Z,64.90
2018-04-02T05:33:23.672Z,62.50
2018-04-02T05:35:54.440Z,62.30
2018-04-02T05:38:25.191Z,60.60
2018-04-02T05:40:55.709Z,59.30
2018-04-02T05:43:26.203Z,58.20
2018-04-02T05:45:58.423Z,58.30
2018-04-02T05:48:29.759Z,58.80
2018-04-02T05:51:00.309Z,58.80
2018-04-02T05:53:30.758Z,59.70
2018-04-02T05:56:01.570Z,59.60
2018-04-02T05:58:32.015Z,59.90
2018-04-02T06:01:02.473Z,59.80
2018-04-02T06:03:33.341Z,60.10
2018-04-02T06:06:03.780Z,59.90
2018-04-02T06:08:34.272Z,60.00
2018-04-02T06:11:05.491Z,58.70
2018-04-02T06:13:35.950Z,58.70
2018-04-02T06:16:07.162Z,58.60
2018-04-02T06:18:38.436Z,57.30
2018-04-02T06:21:09.690Z,56.30
2018-04-02T06:23:41.110Z,56.30
2018-04-02T06:26:12.374Z,56.20
2018-04-02T06:28:43.656Z,56.20
2018-04-02T06:31:14.126Z,56.20
2018-04-02T06:33:44.590Z,56.30
2018-04-02T06:36:15.410Z,56.40
2018-04-02T06:38:46.774Z,56.10
2018-04-02T06:41:17.226Z,56.10
2018-04-02T06:43:47.684Z,56.90
2018-04-02T06:46:18.184Z,57.50
2018-04-02T06:48:48.659Z,57.50
2018-04-02T06:51:19.869Z,58.00
2018-04-02T06:53:50.354Z,57.40
2018-04-02T06:56:20.822Z,57.30
2018-04-02T06:58:51.278Z,57.20
2018-04-02T07:01:22.574Z,57.20
2018-04-02T07:06:28.802Z,57.00
2018-04-02T07:08:59.258Z,57.00
2018-04-02T07:11:29.761Z,57.10
2018-04-02T07:14:00.235Z,58.10
2018-04-02T07:16:30.683Z,59.10
2018-04-02T07:19:01.142Z,59.20
2018-04-02T07:21:31.599Z,58.70
2018-04-02T07:24:02.080Z,58.30
2018-04-02T07:26:32.544Z,59.10
2018-04-02T07:29:03.790Z,59.80
2018-04-02T07:31:35.233Z,60.00
2018-04-02T07:34:06.490Z,60.00
2018-04-02T07:36:37.506Z,59.70
2018-04-02T07:39:09.826Z,60.00
2018-04-02T07:41:40.306Z,60.30
2018-04-02T07:44:10.758Z,61.50
2018-04-02T07:46:41.978Z,61.80
2018-04-02T07:49:12.677Z,61.80
2018-04-02T07:51:43.195Z,62.10
2018-04-02T07:54:13.749Z,62.80
2018-04-02T07:56:44.339Z,62.80
2018-04-02T07:59:14.826Z,63.50
2018-04-02T08:01:45.341Z,64.30
2018-04-02T08:04:16.024Z,64.60
2018-04-02T08:06:46.582Z,64.70
2018-04-02T08:09:17.105Z,63.40
2018-04-02T08:11:47.767Z,63.90
2018-04-02T08:14:18.843Z,63.40
2018-04-02T08:16:51.042Z,64.10
2018-04-02T08:19:21.587Z,64.10
2018-04-02T08:21:52.050Z,64.00
2018-04-02T08:24:23.642Z,62.30
2018-04-02T08:26:54.356Z,62.20
2018-04-02T08:29:25.148Z,61.20
2018-04-02T08:31:55.676Z,61.40
2018-04-02T08:34:26.193Z,60.00
2018-04-02T08:36:56.787Z,60.50
2018-04-02T08:39:28.453Z,61.30
2018-04-02T08:41:59.029Z,61.90
2018-04-02T08:44:29.499Z,62.20
2018-04-02T08:47:00.105Z,61.70
2018-04-02T08:49:32.027Z,62.00
2018-04-02T08:52:02.588Z,62.00
2018-04-02T08:54:34.803Z,63.20
2018-04-02T08:57:05.508Z,63.20
2018-04-02T08:59:36.499Z,64.30
2018-04-02T09:02:06.991Z,64.40
2018-04-02T09:04:37.528Z,63.60
2018-04-02T09:09:42.905Z,63.40
2018-04-02T09:12:13.486Z,63.00
2018-04-02T09:14:44.857Z,64.10
2018-04-02T09:17:16.346Z,64.00
2018-04-02T09:19:46.907Z,63.60
2018-04-02T09:22:17.506Z,63.10
2018-04-02T09:24:48.537Z,62.30
2018-04-02T09:27:19.570Z,60.90
2018-04-02T09:29:50.074Z,59.90
2018-04-02T09:32:20.893Z,59.40
2018-04-02T09:34:52.462Z,59.40
2018-04-02T09:37:23.788Z,60.00
2018-04-02T09:39:54.264Z,60.00
2018-04-02T09:42:24.803Z,60.70
2018-04-02T09:44:55.304Z,59.30
2018-04-02T09:47:25.798Z,59.60
2018-04-02T09:49:56.490Z,59.50
2018-04-02T09:52:27.182Z,59.30
2018-04-02T09:54:59.426Z,59.40
2018-04-02T09:57:29.997Z,59.30
2018-04-02T10:00:00.476Z,59.30
2018-04-02T10:02:35.902Z,59.30
2018-04-02T10:05:08.370Z,59.30
2018-04-02T10:07:40.648Z,59.20
2018-04-02T10:10:11.229Z,59.20
2018-04-02T10:12:42.583Z,59.10
2018-04-02T10:15:13.159Z,59.10
2018-04-02T10:17:43.992Z,59.00
2018-04-02T10:20:14.624Z,59.50
2018-04-02T10:22:45.162Z,59.20
2018-04-02T10:25:15.725Z,59.30
2018-04-02T10:27:46.955Z,59.30
2018-04-02T10:30:17.755Z,59.30
2018-04-02T10:32:48.488Z,59.40
2018-04-02T10:35:18.974Z,59.20
2018-04-02T10:37:50.181Z,58.60
2018-04-02T10:40:21.869Z,58.60
2018-04-02T10:42:54.023Z,58.80
2018-04-02T10:45:24.791Z,58.80
2018-04-02T10:47:55.342Z,58.90
2018-04-02T10:50:25.807Z,59.10
2018-04-02T10:52:56.309Z,59.30
2018-04-02T10:55:26.766Z,60.60
2018-04-02T10:57:57.227Z,60.60
2018-04-02T11:00:27.715Z,62.70
2018-04-02T11:02:58.211Z,63.70
2018-04-02T11:05:29.602Z,64.20
2018-04-02T11:08:00.083Z,64.30
2018-04-02T11:10:30.554Z,64.70
2018-04-02T11:13:00.986Z,63.50
2018-04-02T11:15:32.442Z,64.20
2018-04-02T11:18:03.673Z,63.20
2018-04-02T11:20:34.686Z,63.10
2018-04-02T11:23:05.147Z,64.80
2018-04-02T11:25:35.614Z,65.60
2018-04-02T11:28:06.095Z,66.10
2018-04-02T11:30:36.553Z,66.30
2018-04-02T11:33:07.976Z,66.30
2018-04-02T11:35:39.136Z,66.20
2018-04-02T11:38:10.443Z,66.60
2018-04-02T11:40:41.050Z,66.60
2018-04-02T11:43:11.523Z,67.10
2018-04-02T11:45:42.002Z,67.30
2018-04-02T11:48:12.755Z,67.60
2018-04-02T11:50:43.316Z,68.10
2018-04-02T11:53:13.791Z,68.30
2018-04-02T11:55:44.267Z,68.10
2018-04-02T11:58:14.734Z,67.90
2018-04-02T12:00:45.244Z,68.00
2018-04-02T12:03:16.481Z,68.20
2018-04-02T12:05:47.714Z,68.20
2018-04-02T12:08:18.165Z,68.20
2018-04-02T12:10:49.452Z,68.50
2018-04-02T12:13:20.003Z,68.40
2018-04-02T12:15:51.406Z,68.30
2018-04-02T12:18:21.879Z,68.10
2018-04-02T12:20:52.398Z,68.00
2018-04-02T12:23:22.890Z,67.80
2018-04-02T12:25:53.449Z,67.80
2018-04-02T12:28:23.928Z,68.00
2018-04-02T12:30:55.142Z,68.40
2018-04-02T12:33:25.609Z,68.40
2018-04-02T12:35:56.649Z,68.60
2018-04-02T12:38:29.042Z,68.80
2018-04-02T12:41:00.122Z,68.80
2018-04-02T12:43:30.611Z,68.30
2018-04-02T12:46:01.811Z,68.40
2018-04-02T12:48:32.356Z,68.60
2018-04-02T12:51:04.614Z,68.70
2018-04-02T12:53:35.895Z,69.00
2018-04-02T12:56:06.420Z,69.00
2018-04-02T12:58:37.483Z,69.30
2018-04-02T13:01:07.951Z,69.10
2018-04-02T13:03:38.420Z,68.90
2018-04-02T13:06:09.090Z,68.80
2018-04-02T13:08:39.572Z,68.90
2018-04-02T13:11:10.068Z,68.80
2018-04-02T13:13:41.766Z,69.30
2018-04-02T13:16:12.246Z,69.70
2018-04-02T13:18:42.830Z,69.80
2018-04-02T13:21:13.410Z,69.60
2018-04-02T13:23:43.875Z,69.40
2018-04-02T13:26:14.347Z,69.10
2018-04-02T13:28:44.796Z,69.20
2018-04-02T13:31:15.247Z,69.20
2018-04-02T13:33:46.467Z,69.50
2018-04-02T13:36:16.934Z,69.50
2018-04-02T13:38:47.386Z,69.50
2018-04-02T13:41:18.764Z,69.60
2018-04-02T13:43:49.533Z,69.70
2018-04-02T13:46:20.024Z,69.80
2018-04-02T13:48:50.509Z,69.80
2018-04-02T13:51:20.971Z,69.90
2018-04-02T13:53:51.428Z,70.00
2018-04-02T13:56:23.686Z,70.40
2018-04-02T13:58:54.799Z,70.40
2018-04-02T14:01:25.268Z,70.40
2018-04-02T14:03:56.478Z,71.00
2018-04-02T14:06:26.959Z,71.00
2018-04-02T14:08:57.429Z,71.30
2018-04-02T14:11:27.914Z,71.40
2018-04-02T14:13:58.406Z,71.30
2018-04-02T14:16:28.845Z,71.30
2018-04-02T14:19:00.124Z,71.60
2018-04-02T14:21:30.590Z,71.50
2018-04-02T14:24:01.030Z,71.80
2018-04-02T14:26:31.797Z,72.00
2018-04-02T14:29:03.258Z,71.90
2018-04-02T14:31:33.785Z,71.80
2018-04-02T14:34:04.319Z,71.70
2018-04-02T14:36:34.794Z,71.80
2018-04-02T14:39:06.077Z,72.30
2018-04-02T14:41:37.307Z,72.80
2018-04-02T14:44:08.534Z,72.90
2018-04-02T14:46:38.985Z,72.90
2018-04-02T14:49:10.191Z,72.70
2018-04-02T14:51:40.642Z,72.60
2018-04-02T14:54:11.104Z,72.60
2018-04-02T14:56:41.584Z,72.80
2018-04-02T14:59:12.064Z,72.90
2018-04-02T15:01:43.448Z,72.90
2018-04-02T15:04:13.926Z,73.00
2018-04-02T15:06:46.087Z,73.10
2018-04-02T15:09:17.319Z,73.20
2018-04-02T15:11:48.583Z,73.40
2018-04-02T15:14:19.806Z,73.60
2018-04-02T15:16:50.262Z,73.60
2018-04-02T15:19:20.794Z,73.70
2018-04-02T15:21:51.251Z,73.80
2018-04-02T15:24:21.720Z,73.70
2018-04-02T15:26:52.182Z,73.70
2018-04-02T15:29:22.708Z,73.80
2018-04-02T15:31:53.200Z,73.80
2018-04-02T15:34:23.662Z,74.00
2018-04-02T15:36:54.185Z,74.40
2018-04-02T15:39:25.496Z,74.90
2018-04-02T15:41:57.060Z,74.80
2018-04-02T15:44:27.536Z,74.60
2018-04-02T15:46:58.047Z,74.60
2018-04-02T15:49:28.551Z,74.60
2018-04-02T15:52:00.733Z,75.30
2018-04-02T15:54:31.996Z,75.20
2018-04-02T15:57:02.456Z,75.20
2018-04-02T15:59:32.946Z,75.20
2018-04-02T16:02:03.410Z,75.00
2018-04-02T16:04:34.686Z,74.80
2018-04-02T16:07:05.158Z,74.80
2018-04-02T16:09:35.606Z,75.00
2018-04-02T16:12:06.088Z,75.10
2018-04-02T16:14:37.319Z,75.00
2018-04-02T16:17:07.828Z,75.00
2018-04-02T16:19:38.359Z,74.90
2018-04-02T16:22:08.838Z,74.90
2018-04-02T16:24:39.316Z,74.80
2018-04-02T16:27:10.657Z,74.90
2018-04-02T16:29:41.130Z,74.80
2018-04-02T16:32:11.583Z,74.60
2018-04-02T16:34:42.042Z,75.00
2018-04-02T16:37:12.486Z,74.50
2018-04-02T19:57:36.293Z,84.20
2018-04-02T20:00:06.490Z,84.20
2018-04-02T20:02:37.055Z,83.30
2018-04-02T20:05:06.900Z,83.30
2018-04-02T20:07:36.720Z,83.50
2018-04-02T20:10:06.693Z,84.00
2018-04-02T20:12:36.502Z,84.30
2018-04-02T20:15:06.338Z,84.10
2018-04-02T20:17:36.128Z,83.90
2018-04-02T20:20:06.217Z,83.80
2018-04-02T20:22:36.856Z,84.30
2018-04-02T20:25:07.420Z,83.80
2018-04-02T20:27:37.233Z,83.70
2018-04-02T20:30:07.025Z,83.70
2018-04-02T20:32:36.788Z,83.80
2018-04-02T20:35:06.558Z,83.70
2018-04-02T20:37:36.343Z,83.70
2018-04-02T20:42:40.865Z,83.70
2018-04-02T20:45:10.612Z,83.60
2018-04-02T20:47:40.495Z,83.60
2018-04-02T20:50:11.070Z,83.10
2018-04-02T20:52:40.895Z,83.10
2018-04-02T20:55:11.369Z,83.20
2018-04-02T20:57:41.941Z,83.20
2018-04-02T21:00:11.753Z,83.10
2018-04-02T21:02:41.575Z,83.20
2018-04-02T21:05:11.691Z,83.50
2018-04-02T21:07:41.814Z,83.20
2018-04-02T21:10:11.605Z,82.80
2018-04-02T21:12:41.389Z,82.70
2018-04-02T21:15:11.938Z,82.90
2018-04-02T21:17:42.371Z,82.90
2018-04-02T21:20:12.162Z,83.30
2018-04-02T21:22:42.796Z,82.90
2018-04-02T21:25:12.571Z,82.90
2018-04-02T21:27:42.422Z,83.00
2018-04-02T21:30:12.242Z,83.30
2018-04-02T21:32:42.036Z,83.50
2018-04-02T21:35:12.593Z,84.00
2018-04-02T21:37:42.529Z,83.20
2018-04-02T21:40:12.312Z,83.30
2018-04-02T21:42:42.093Z,83.40
2018-04-02T21:45:12.652Z,83.60
2018-04-02T21:47:42.492Z,83.60
2018-04-02T21:50:12.320Z,83.60
2018-04-02T21:52:42.174Z,83.80
2018-04-02T21:55:12.723Z,83.70
2018-04-02T21:57:42.706Z,83.60
2018-04-02T22:00:13.626Z,83.40
2018-04-02T22:02:43.406Z,83.40
2018-04-02T22:05:13.566Z,83.40
2018-04-02T22:07:43.482Z,83.50
2018-04-02T22:10:13.333Z,83.30
2018-04-02T22:12:43.914Z,83.10
2018-04-02T22:15:13.704Z,83.10
2018-04-02T22:17:46.026Z,83.20
2018-04-02T22:20:16.599Z,83.30
2018-04-02T22:22:46.509Z,83.30
2018-04-02T22:25:16.258Z,83.30
2018-04-02T22:27:46.652Z,83.30
2018-04-02T22:30:16.433Z,83.20
2018-04-02T22:32:46.240Z,83.30
2018-04-02T22:35:16.035Z,83.50
2018-04-02T22:37:46.593Z,83.30
2018-04-02T22:40:16.542Z,83.30
2018-04-02T22:42:48.316Z,83.40
2018-04-02T22:45:18.130Z,83.50
2018-04-02T22:47:47.901Z,83.50
2018-04-02T22:50:17.729Z,83.20
2018-04-02T22:52:47.575Z,83.10
2018-04-02T22:55:18.988Z,82.80
2018-04-02T22:57:48.854Z,82.70
2018-04-02T23:00:20.785Z,83.00
2018-04-02T23:02:50.738Z,83.00
2018-04-02T23:05:20.545Z,83.00
2018-04-02T23:07:52.014Z,83.00
2018-04-02T23:10:22.665Z,83.00
2018-04-02T23:12:52.459Z,83.10
2018-04-02T23:15:22.246Z,83.10
2018-04-02T23:17:52.079Z,83.90
2018-04-02T23:20:21.964Z,82.90
2018-04-02T23:22:55.064Z,82.60
2018-04-02T23:25:25.635Z,83.00
2018-04-02T23:27:56.217Z,83.10
2018-04-02T23:30:26.790Z,83.20
2018-04-02T23:32:56.636Z,83.20
2018-04-02T23:35:26.413Z,83.20
2018-04-02T23:37:56.159Z,82.90
2018-04-02T23:40:25.989Z,82.70
2018-04-02T23:42:56.600Z,82.60
2018-04-02T23:45:26.418Z,82.60
2018-04-02T23:47:56.234Z,82.20
2018-04-02T23:50:25.994Z,82.20
2018-04-02T23:52:55.883Z,82.50
2018-04-02T23:55:26.429Z,82.80
2018-04-02T23:57:56.542Z,82.70
